Terminal Aerodrome Forecast
Issued by NWS

Home | Current Version | Previous Version | Graphics & Text | Print | Product List | Glossary Off
Versions: 1 2 3 4 5 6 7 8 9 10 11 12 13 14 15

182
FTUS43 KBIS 252320
TAFJMS
TAF
KJMS 252320Z 2600/2624 20007KT P6SM SCT150
     FM260500 23006KT P6SM VCTS SCT100CB
     FM261000 25005KT P6SM SCT120
     FM261900 06008KT P6SM BKN120=

USA.gov is the U.S. government's official web portal to all federal, state and local government web resources and services.